sensor_id;sensor_type;location;lat;lon;timestamp;P1;durP1;ratioP1;P2;durP2;ratioP2
28605;SDS011;46498;49.968;7.754;2023-07-20T00:02:18;5.43;;;1.90;;
28605;SDS011;46498;49.968;7.754;2023-07-20T00:07:19;8.32;;;2.65;;
28605;SDS011;46498;49.968;7.754;2023-07-20T00:12:20;5.30;;;2.12;;
28605;SDS011;46498;49.968;7.754;2023-07-20T00:17:21;4.78;;;2.40;;
28605;SDS011;46498;49.968;7.754;2023-07-20T00:22:22;4.82;;;2.47;;
28605;SDS011;46498;49.968;7.754;2023-07-20T00:27:23;5.37;;;2.30;;
28605;SDS011;46498;49.968;7.754;2023-07-20T00:32:24;5.25;;;2.20;;
28605;SDS011;46498;49.968;7.754;2023-07-20T00:37:24;7.35;;;2.25;;
28605;SDS011;46498;49.968;7.754;2023-07-20T00:42:25;3.97;;;1.92;;
28605;SDS011;46498;49.968;7.754;2023-07-20T00:47:27;7.37;;;2.47;;
28605;SDS011;46498;49.968;7.754;2023-07-20T00:52:28;7.32;;;2.80;;
28605;SDS011;46498;49.968;7.754;2023-07-20T00:57:29;4.30;;;1.90;;
28605;SDS011;46498;49.968;7.754;2023-07-20T01:02:31;7.30;;;2.55;;
28605;SDS011;46498;49.968;7.754;2023-07-20T01:07:35;5.85;;;2.20;;
28605;SDS011;46498;49.968;7.754;2023-07-20T01:12:43;7.47;;;2.40;;
28605;SDS011;46498;49.968;7.754;2023-07-20T01:17:47;7.95;;;2.10;;
28605;SDS011;46498;49.968;7.754;2023-07-20T01:33:54;7.43;;;2.50;;
28605;SDS011;46498;49.968;7.754;2023-07-20T01:38:56;12.98;;;3.15;;
28605;SDS011;46498;49.968;7.754;2023-07-20T01:43:58;7.28;;;2.10;;
28605;SDS011;46498;49.968;7.754;2023-07-20T01:48:59;6.33;;;2.43;;
28605;SDS011;46498;49.968;7.754;2023-07-20T01:54:01;6.65;;;2.40;;
28605;SDS011;46498;49.968;7.754;2023-07-20T01:59:02;8.65;;;3.35;;
28605;SDS011;46498;49.968;7.754;2023-07-20T02:04:03;5.97;;;2.12;;
28605;SDS011;46498;49.968;7.754;2023-07-20T02:09:04;5.50;;;2.08;;
28605;SDS011;46498;49.968;7.754;2023-07-20T02:14:05;6.78;;;2.15;;
28605;SDS011;46498;49.968;7.754;2023-07-20T02:19:06;9.23;;;2.50;;
28605;SDS011;46498;49.968;7.754;2023-07-20T02:24:07;5.82;;;2.70;;
28605;SDS011;46498;49.968;7.754;2023-07-20T02:29:08;7.53;;;2.30;;
28605;SDS011;46498;49.968;7.754;2023-07-20T02:34:12;5.10;;;2.03;;
28605;SDS011;46498;49.968;7.754;2023-07-20T02:39:14;5.95;;;2.25;;
28605;SDS011;46498;49.968;7.754;2023-07-20T02:44:14;6.32;;;2.45;;
28605;SDS011;46498;49.968;7.754;2023-07-20T02:49:15;6.70;;;2.85;;
28605;SDS011;46498;49.968;7.754;2023-07-20T02:54:17;4.10;;;2.22;;
28605;SDS011;46498;49.968;7.754;2023-07-20T02:59:18;6.10;;;2.55;;
28605;SDS011;46498;49.968;7.754;2023-07-20T03:04:19;6.53;;;2.62;;
28605;SDS011;46498;49.968;7.754;2023-07-20T03:09:20;7.00;;;2.45;;
28605;SDS011;46498;49.968;7.754;2023-07-20T03:14:21;4.68;;;2.42;;
28605;SDS011;46498;49.968;7.754;2023-07-20T03:19:24;7.22;;;2.30;;
28605;SDS011;46498;49.968;7.754;2023-07-20T03:24:25;8.48;;;2.72;;
28605;SDS011;46498;49.968;7.754;2023-07-20T03:29:26;5.70;;;2.17;;
28605;SDS011;46498;49.968;7.754;2023-07-20T03:34:27;6.82;;;3.20;;
28605;SDS011;46498;49.968;7.754;2023-07-20T03:39:28;10.05;;;2.75;;
28605;SDS011;46498;49.968;7.754;2023-07-20T03:44:29;6.32;;;2.78;;
28605;SDS011;46498;49.968;7.754;2023-07-20T03:49:31;6.70;;;2.60;;
28605;SDS011;46498;49.968;7.754;2023-07-20T03:54:31;6.22;;;2.17;;
28605;SDS011;46498;49.968;7.754;2023-07-20T03:59:32;6.20;;;2.60;;
28605;SDS011;46498;49.968;7.754;2023-07-20T04:04:34;4.50;;;2.10;;
28605;SDS011;46498;49.968;7.754;2023-07-20T04:09:35;5.55;;;2.00;;
28605;SDS011;46498;49.968;7.754;2023-07-20T04:14:36;7.30;;;2.50;;
28605;SDS011;46498;49.968;7.754;2023-07-20T04:19:37;6.72;;;2.20;;
28605;SDS011;46498;49.968;7.754;2023-07-20T04:24:38;9.35;;;2.28;;
28605;SDS011;46498;49.968;7.754;2023-07-20T04:29:39;5.78;;;2.33;;
28605;SDS011;46498;49.968;7.754;2023-07-20T04:34:40;6.57;;;2.35;;
28605;SDS011;46498;49.968;7.754;2023-07-20T04:39:41;7.22;;;2.70;;
28605;SDS011;46498;49.968;7.754;2023-07-20T04:44:45;7.72;;;2.70;;
28605;SDS011;46498;49.968;7.754;2023-07-20T04:49:46;4.80;;;2.40;;
28605;SDS011;46498;49.968;7.754;2023-07-20T04:54:46;6.32;;;2.70;;
28605;SDS011;46498;49.968;7.754;2023-07-20T04:59:48;4.53;;;2.40;;
28605;SDS011;46498;49.968;7.754;2023-07-20T05:04:49;6.30;;;2.50;;
28605;SDS011;46498;49.968;7.754;2023-07-20T05:09:50;6.95;;;2.53;;
28605;SDS011;46498;49.968;7.754;2023-07-20T05:14:51;10.25;;;3.20;;
28605;SDS011;46498;49.968;7.754;2023-07-20T05:19:52;6.78;;;2.42;;
28605;SDS011;46498;49.968;7.754;2023-07-20T05:24:53;13.48;;;2.72;;
28605;SDS011;46498;49.968;7.754;2023-07-20T05:29:54;5.00;;;2.40;;
28605;SDS011;46498;49.968;7.754;2023-07-20T05:34:54;6.15;;;2.47;;
28605;SDS011;46498;49.968;7.754;2023-07-20T05:39:57;6.32;;;2.50;;
28605;SDS011;46498;49.968;7.754;2023-07-20T05:44:58;8.38;;;2.62;;
28605;SDS011;46498;49.968;7.754;2023-07-20T05:49:59;4.28;;;2.30;;
28605;SDS011;46498;49.968;7.754;2023-07-20T05:55:00;6.57;;;2.30;;
28605;SDS011;46498;49.968;7.754;2023-07-20T06:00:01;8.90;;;3.22;;
28605;SDS011;46498;49.968;7.754;2023-07-20T06:05:12;6.68;;;2.75;;
28605;SDS011;46498;49.968;7.754;2023-07-20T06:10:13;5.15;;;2.53;;
28605;SDS011;46498;49.968;7.754;2023-07-20T06:15:24;5.60;;;2.20;;
28605;SDS011;46498;49.968;7.754;2023-07-20T06:20:27;6.50;;;2.30;;
28605;SDS011;46498;49.968;7.754;2023-07-20T06:25:28;6.93;;;2.80;;
28605;SDS011;46498;49.968;7.754;2023-07-20T06:30:29;5.22;;;2.28;;
28605;SDS011;46498;49.968;7.754;2023-07-20T06:35:30;7.53;;;2.95;;
28605;SDS011;46498;49.968;7.754;2023-07-20T06:40:31;6.03;;;2.22;;
28605;SDS011;46498;49.968;7.754;2023-07-20T06:45:33;6.50;;;2.78;;
28605;SDS011;46498;49.968;7.754;2023-07-20T06:50:35;6.43;;;2.60;;
28605;SDS011;46498;49.968;7.754;2023-07-20T06:55:36;5.40;;;2.35;;
28605;SDS011;46498;49.968;7.754;2023-07-20T07:00:42;6.72;;;2.40;;
28605;SDS011;46498;49.968;7.754;2023-07-20T07:05:44;6.10;;;2.30;;
28605;SDS011;46498;49.968;7.754;2023-07-20T07:10:52;4.90;;;2.58;;
28605;SDS011;46498;49.968;7.754;2023-07-20T07:15:53;6.30;;;3.10;;
28605;SDS011;46498;49.968;7.754;2023-07-20T07:20:54;7.55;;;2.87;;
28605;SDS011;46498;49.968;7.754;2023-07-20T07:25:55;9.05;;;2.95;;
28605;SDS011;46498;49.968;7.754;2023-07-20T07:30:56;6.05;;;2.37;;
28605;SDS011;46498;49.968;7.754;2023-07-20T07:35:57;6.43;;;2.62;;
28605;SDS011;46498;49.968;7.754;2023-07-20T07:41:02;8.30;;;2.53;;
28605;SDS011;46498;49.968;7.754;2023-07-20T07:46:03;6.00;;;2.17;;
28605;SDS011;46498;49.968;7.754;2023-07-20T07:51:04;6.07;;;2.62;;
28605;SDS011;46498;49.968;7.754;2023-07-20T07:56:06;4.47;;;2.60;;
28605;SDS011;46498;49.968;7.754;2023-07-20T08:01:08;6.00;;;2.70;;
28605;SDS011;46498;49.968;7.754;2023-07-20T08:06:09;4.95;;;2.17;;
28605;SDS011;46498;49.968;7.754;2023-07-20T08:11:10;6.30;;;2.78;;
28605;SDS011;46498;49.968;7.754;2023-07-20T08:16:14;5.00;;;2.47;;
28605;SDS011;46498;49.968;7.754;2023-07-20T08:21:15;8.63;;;2.60;;
28605;SDS011;46498;49.968;7.754;2023-07-20T08:26:16;4.85;;;2.40;;
28605;SDS011;46498;49.968;7.754;2023-07-20T08:31:17;7.03;;;3.17;;
28605;SDS011;46498;49.968;7.754;2023-07-20T08:36:18;4.70;;;2.25;;
28605;SDS011;46498;49.968;7.754;2023-07-20T08:41:19;5.00;;;2.53;;
28605;SDS011;46498;49.968;7.754;2023-07-20T08:46:21;3.80;;;2.17;;
28605;SDS011;46498;49.968;7.754;2023-07-20T08:51:24;7.78;;;2.70;;
28605;SDS011;46498;49.968;7.754;2023-07-20T08:56:26;5.93;;;2.65;;
28605;SDS011;46498;49.968;7.754;2023-07-20T09:01:28;4.32;;;2.30;;
28605;SDS011;46498;49.968;7.754;2023-07-20T09:06:31;4.78;;;2.70;;
28605;SDS011;46498;49.968;7.754;2023-07-20T09:11:32;7.22;;;2.37;;
28605;SDS011;46498;49.968;7.754;2023-07-20T09:17:06;5.75;;;2.17;;
28605;SDS011;46498;49.968;7.754;2023-07-20T09:22:14;3.95;;;2.40;;
28605;SDS011;46498;49.968;7.754;2023-07-20T09:27:15;6.60;;;2.67;;
28605;SDS011;46498;49.968;7.754;2023-07-20T09:32:20;6.70;;;3.00;;
28605;SDS011;46498;49.968;7.754;2023-07-20T09:37:26;6.12;;;2.50;;
28605;SDS011;46498;49.968;7.754;2023-07-20T09:42:28;5.93;;;2.67;;
28605;SDS011;46498;49.968;7.754;2023-07-20T09:47:33;4.72;;;2.40;;
28605;SDS011;46498;49.968;7.754;2023-07-20T09:52:38;6.12;;;2.37;;
28605;SDS011;46498;49.968;7.754;2023-07-20T09:57:49;5.70;;;2.53;;
28605;SDS011;46498;49.968;7.754;2023-07-20T10:02:53;5.03;;;2.45;;
28605;SDS011;46498;49.968;7.754;2023-07-20T10:07:56;4.72;;;2.22;;
28605;SDS011;46498;49.968;7.754;2023-07-20T10:13:01;2.85;;;1.95;;
28605;SDS011;46498;49.968;7.754;2023-07-20T10:18:12;6.90;;;2.28;;
28605;SDS011;46498;49.968;7.754;2023-07-20T10:23:16;5.85;;;2.15;;
28605;SDS011;46498;49.968;7.754;2023-07-20T10:28:18;5.50;;;2.25;;
28605;SDS011;46498;49.968;7.754;2023-07-20T10:33:19;3.12;;;1.83;;
28605;SDS011;46498;49.968;7.754;2023-07-20T10:38:37;4.15;;;2.28;;
28605;SDS011;46498;49.968;7.754;2023-07-20T10:43:58;5.25;;;1.95;;
28605;SDS011;46498;49.968;7.754;2023-07-20T10:49:08;2.72;;;1.83;;
28605;SDS011;46498;49.968;7.754;2023-07-20T10:59:48;8.23;;;2.17;;
28605;SDS011;46498;49.968;7.754;2023-07-20T11:04:50;3.70;;;2.10;;
28605;SDS011;46498;49.968;7.754;2023-07-20T11:09:51;6.43;;;2.05;;
28605;SDS011;46498;49.968;7.754;2023-07-20T11:14:57;3.58;;;1.90;;
28605;SDS011;46498;49.968;7.754;2023-07-20T11:19:59;4.30;;;2.03;;
28605;SDS011;46498;49.968;7.754;2023-07-20T11:25:04;4.25;;;1.77;;
28605;SDS011;46498;49.968;7.754;2023-07-20T11:30:14;4.55;;;1.70;;
28605;SDS011;46498;49.968;7.754;2023-07-20T11:35:16;4.37;;;1.52;;
28605;SDS011;46498;49.968;7.754;2023-07-20T11:40:17;4.22;;;1.62;;
28605;SDS011;46498;49.968;7.754;2023-07-20T11:45:19;1.90;;;1.50;;
28605;SDS011;46498;49.968;7.754;2023-07-20T11:50:20;1.90;;;1.35;;
28605;SDS011;46498;49.968;7.754;2023-07-20T11:55:21;3.05;;;1.33;;
28605;SDS011;46498;49.968;7.754;2023-07-20T12:00:24;3.90;;;1.67;;
28605;SDS011;46498;49.968;7.754;2023-07-20T12:05:28;3.97;;;1.87;;
28605;SDS011;46498;49.968;7.754;2023-07-20T12:10:29;3.75;;;1.67;;
28605;SDS011;46498;49.968;7.754;2023-07-20T12:15:30;2.58;;;1.58;;
28605;SDS011;46498;49.968;7.754;2023-07-20T12:20:32;3.87;;;1.83;;
28605;SDS011;46498;49.968;7.754;2023-07-20T12:25:42;4.00;;;1.52;;
28605;SDS011;46498;49.968;7.754;2023-07-20T12:30:46;2.85;;;1.60;;
28605;SDS011;46498;49.968;7.754;2023-07-20T12:35:56;3.72;;;1.50;;
28605;SDS011;46498;49.968;7.754;2023-07-20T12:41:02;3.42;;;1.70;;
28605;SDS011;46498;49.968;7.754;2023-07-20T12:46:03;2.10;;;1.45;;
28605;SDS011;46498;49.968;7.754;2023-07-20T12:51:05;5.27;;;1.23;;
28605;SDS011;46498;49.968;7.754;2023-07-20T12:56:06;3.53;;;1.40;;
28605;SDS011;46498;49.968;7.754;2023-07-20T13:01:10;1.65;;;1.05;;
28605;SDS011;46498;49.968;7.754;2023-07-20T13:06:11;3.42;;;1.37;;
28605;SDS011;46498;49.968;7.754;2023-07-20T13:11:15;1.52;;;1.30;;
28605;SDS011;46498;49.968;7.754;2023-07-20T13:16:16;2.53;;;1.33;;
28605;SDS011;46498;49.968;7.754;2023-07-20T13:21:17;1.95;;;1.30;;
28605;SDS011;46498;49.968;7.754;2023-07-20T13:26:23;3.42;;;1.90;;
28605;SDS011;46498;49.968;7.754;2023-07-20T13:31:25;4.85;;;2.22;;
28605;SDS011;46498;49.968;7.754;2023-07-20T13:36:26;2.43;;;1.93;;
28605;SDS011;46498;49.968;7.754;2023-07-20T13:41:30;4.95;;;1.87;;
28605;SDS011;46498;49.968;7.754;2023-07-20T13:46:33;4.25;;;1.98;;
28605;SDS011;46498;49.968;7.754;2023-07-20T13:51:37;3.62;;;2.12;;
28605;SDS011;46498;49.968;7.754;2023-07-20T13:56:39;4.60;;;2.00;;
28605;SDS011;46498;49.968;7.754;2023-07-20T14:01:39;5.87;;;2.22;;
28605;SDS011;46498;49.968;7.754;2023-07-20T14:06:42;4.70;;;2.03;;
28605;SDS011;46498;49.968;7.754;2023-07-20T14:11:43;4.90;;;2.10;;
28605;SDS011;46498;49.968;7.754;2023-07-20T14:16:47;5.10;;;2.35;;
28605;SDS011;46498;49.968;7.754;2023-07-20T14:21:48;5.43;;;1.90;;
28605;SDS011;46498;49.968;7.754;2023-07-20T14:26:49;4.82;;;1.60;;
28605;SDS011;46498;49.968;7.754;2023-07-20T14:31:52;3.67;;;1.98;;
28605;SDS011;46498;49.968;7.754;2023-07-20T14:36:54;5.83;;;1.90;;
28605;SDS011;46498;49.968;7.754;2023-07-20T14:41:55;3.05;;;1.98;;
28605;SDS011;46498;49.968;7.754;2023-07-20T14:46:56;4.12;;;1.90;;
28605;SDS011;46498;49.968;7.754;2023-07-20T14:52:15;4.03;;;1.70;;
28605;SDS011;46498;49.968;7.754;2023-07-20T15:02:18;5.43;;;2.03;;
28605;SDS011;46498;49.968;7.754;2023-07-20T15:07:20;2.17;;;1.83;;
28605;SDS011;46498;49.968;7.754;2023-07-20T15:12:24;3.90;;;1.87;;
28605;SDS011;46498;49.968;7.754;2023-07-20T15:17:25;3.22;;;1.77;;
28605;SDS011;46498;49.968;7.754;2023-07-20T15:22:26;2.90;;;1.87;;
28605;SDS011;46498;49.968;7.754;2023-07-20T15:27:27;5.35;;;2.00;;
28605;SDS011;46498;49.968;7.754;2023-07-20T15:32:28;2.35;;;1.55;;
28605;SDS011;46498;49.968;7.754;2023-07-20T15:37:30;3.40;;;1.80;;
28605;SDS011;46498;49.968;7.754;2023-07-20T15:42:32;6.50;;;1.77;;
28605;SDS011;46498;49.968;7.754;2023-07-20T15:47:36;3.05;;;1.98;;
28605;SDS011;46498;49.968;7.754;2023-07-20T15:52:36;3.72;;;2.03;;
28605;SDS011;46498;49.968;7.754;2023-07-20T15:57:37;7.82;;;1.75;;
28605;SDS011;46498;49.968;7.754;2023-07-20T16:02:38;4.12;;;2.03;;
28605;SDS011;46498;49.968;7.754;2023-07-20T16:12:45;2.28;;;1.42;;
28605;SDS011;46498;49.968;7.754;2023-07-20T16:17:46;3.85;;;1.83;;
28605;SDS011;46498;49.968;7.754;2023-07-20T16:22:46;3.12;;;1.73;;
28605;SDS011;46498;49.968;7.754;2023-07-20T16:27:47;2.47;;;1.67;;
28605;SDS011;46498;49.968;7.754;2023-07-20T16:32:48;6.22;;;1.90;;
28605;SDS011;46498;49.968;7.754;2023-07-20T16:37:52;2.53;;;1.40;;
28605;SDS011;46498;49.968;7.754;2023-07-20T16:42:59;4.87;;;1.83;;
28605;SDS011;46498;49.968;7.754;2023-07-20T16:48:02;4.22;;;1.80;;
28605;SDS011;46498;49.968;7.754;2023-07-20T16:53:04;3.90;;;1.87;;
28605;SDS011;46498;49.968;7.754;2023-07-20T16:58:05;4.57;;;1.70;;
28605;SDS011;46498;49.968;7.754;2023-07-20T17:03:06;4.65;;;1.62;;
28605;SDS011;46498;49.968;7.754;2023-07-20T17:08:06;3.45;;;1.50;;
28605;SDS011;46498;49.968;7.754;2023-07-20T17:13:08;3.37;;;1.75;;
28605;SDS011;46498;49.968;7.754;2023-07-20T17:18:11;5.03;;;1.70;;
28605;SDS011;46498;49.968;7.754;2023-07-20T17:23:13;4.00;;;1.70;;
28605;SDS011;46498;49.968;7.754;2023-07-20T17:28:15;5.35;;;1.60;;
28605;SDS011;46498;49.968;7.754;2023-07-20T17:33:20;2.72;;;1.50;;
28605;SDS011;46498;49.968;7.754;2023-07-20T17:38:21;3.90;;;1.80;;
28605;SDS011;46498;49.968;7.754;2023-07-20T17:43:25;6.60;;;1.95;;
28605;SDS011;46498;49.968;7.754;2023-07-20T17:48:26;6.28;;;1.67;;
28605;SDS011;46498;49.968;7.754;2023-07-20T17:53:27;7.80;;;2.30;;
28605;SDS011;46498;49.968;7.754;2023-07-20T17:58:29;3.12;;;1.70;;
28605;SDS011;46498;49.968;7.754;2023-07-20T18:03:31;3.25;;;1.62;;
28605;SDS011;46498;49.968;7.754;2023-07-20T18:08:31;6.28;;;1.42;;
28605;SDS011;46498;49.968;7.754;2023-07-20T18:13:32;1.87;;;1.30;;
28605;SDS011;46498;49.968;7.754;2023-07-20T18:18:33;3.28;;;1.33;;
28605;SDS011;46498;49.968;7.754;2023-07-20T18:23:34;4.20;;;1.50;;
28605;SDS011;46498;49.968;7.754;2023-07-20T18:28:35;3.47;;;1.40;;
28605;SDS011;46498;49.968;7.754;2023-07-20T18:33:36;3.97;;;1.67;;
28605;SDS011;46498;49.968;7.754;2023-07-20T18:38:37;2.12;;;1.58;;
28605;SDS011;46498;49.968;7.754;2023-07-20T18:43:38;6.60;;;1.62;;
28605;SDS011;46498;49.968;7.754;2023-07-20T18:48:39;6.60;;;1.98;;
28605;SDS011;46498;49.968;7.754;2023-07-20T18:53:41;2.22;;;1.58;;
28605;SDS011;46498;49.968;7.754;2023-07-20T18:58:42;3.07;;;1.47;;
28605;SDS011;46498;49.968;7.754;2023-07-20T19:03:43;3.12;;;1.70;;
28605;SDS011;46498;49.968;7.754;2023-07-20T19:08:44;2.75;;;1.80;;
28605;SDS011;46498;49.968;7.754;2023-07-20T19:13:48;5.85;;;1.50;;
28605;SDS011;46498;49.968;7.754;2023-07-20T19:18:48;6.95;;;1.58;;
28605;SDS011;46498;49.968;7.754;2023-07-20T19:23:49;5.68;;;1.50;;
28605;SDS011;46498;49.968;7.754;2023-07-20T19:28:50;3.12;;;1.50;;
28605;SDS011;46498;49.968;7.754;2023-07-20T19:33:51;4.00;;;1.83;;
28605;SDS011;46498;49.968;7.754;2023-07-20T19:38:52;4.93;;;1.50;;
28605;SDS011;46498;49.968;7.754;2023-07-20T19:43:53;5.00;;;1.50;;
28605;SDS011;46498;49.968;7.754;2023-07-20T19:48:54;2.67;;;1.65;;
28605;SDS011;46498;49.968;7.754;2023-07-20T19:53:56;4.60;;;1.60;;
28605;SDS011;46498;49.968;7.754;2023-07-20T19:59:01;3.90;;;1.30;;
28605;SDS011;46498;49.968;7.754;2023-07-20T20:04:02;3.62;;;1.55;;
28605;SDS011;46498;49.968;7.754;2023-07-20T20:09:06;4.07;;;1.55;;
28605;SDS011;46498;49.968;7.754;2023-07-20T20:14:07;2.20;;;1.40;;
28605;SDS011;46498;49.968;7.754;2023-07-20T20:19:07;2.97;;;1.60;;
28605;SDS011;46498;49.968;7.754;2023-07-20T20:24:09;3.17;;;1.77;;
28605;SDS011;46498;49.968;7.754;2023-07-20T20:29:11;2.05;;;1.30;;
28605;SDS011;46498;49.968;7.754;2023-07-20T20:34:12;3.72;;;1.50;;
28605;SDS011;46498;49.968;7.754;2023-07-20T20:39:12;2.45;;;1.70;;
28605;SDS011;46498;49.968;7.754;2023-07-20T20:44:13;3.40;;;1.50;;
28605;SDS011;46498;49.968;7.754;2023-07-20T20:49:18;4.07;;;1.70;;
28605;SDS011;46498;49.968;7.754;2023-07-20T20:54:19;2.45;;;1.50;;
28605;SDS011;46498;49.968;7.754;2023-07-20T20:59:20;3.65;;;1.60;;
28605;SDS011;46498;49.968;7.754;2023-07-20T21:04:22;4.05;;;1.62;;
28605;SDS011;46498;49.968;7.754;2023-07-20T21:09:24;1.27;;;1.17;;
28605;SDS011;46498;49.968;7.754;2023-07-20T21:14:25;2.20;;;1.42;;
28605;SDS011;46498;49.968;7.754;2023-07-20T21:19:26;4.68;;;1.70;;
28605;SDS011;46498;49.968;7.754;2023-07-20T21:24:27;2.37;;;1.75;;
28605;SDS011;46498;49.968;7.754;2023-07-20T21:29:28;5.75;;;2.10;;
28605;SDS011;46498;49.968;7.754;2023-07-20T21:34:29;2.35;;;1.37;;
28605;SDS011;46498;49.968;7.754;2023-07-20T21:39:30;6.37;;;1.52;;
28605;SDS011;46498;49.968;7.754;2023-07-20T21:44:32;3.92;;;1.50;;
28605;SDS011;46498;49.968;7.754;2023-07-20T21:49:33;1.92;;;1.12;;
28605;SDS011;46498;49.968;7.754;2023-07-20T21:54:34;3.30;;;1.55;;
28605;SDS011;46498;49.968;7.754;2023-07-20T21:59:34;2.67;;;1.55;;
28605;SDS011;46498;49.968;7.754;2023-07-20T22:04:35;1.95;;;1.37;;
28605;SDS011;46498;49.968;7.754;2023-07-20T22:09:36;1.55;;;1.30;;
28605;SDS011;46498;49.968;7.754;2023-07-20T22:19:42;3.78;;;1.67;;
28605;SDS011;46498;49.968;7.754;2023-07-20T22:24:43;2.60;;;1.70;;
28605;SDS011;46498;49.968;7.754;2023-07-20T22:29:45;1.95;;;1.40;;
28605;SDS011;46498;49.968;7.754;2023-07-20T22:34:46;2.95;;;1.35;;
28605;SDS011;46498;49.968;7.754;2023-07-20T22:39:47;3.15;;;1.70;;
28605;SDS011;46498;49.968;7.754;2023-07-20T22:44:48;2.65;;;1.30;;
28605;SDS011;46498;49.968;7.754;2023-07-20T22:49:49;2.08;;;1.40;;
28605;SDS011;46498;49.968;7.754;2023-07-20T22:54:50;2.22;;;1.35;;
28605;SDS011;46498;49.968;7.754;2023-07-20T22:59:51;2.37;;;1.40;;
28605;SDS011;46498;49.968;7.754;2023-07-20T23:04:52;5.85;;;1.55;;
28605;SDS011;46498;49.968;7.754;2023-07-20T23:09:53;4.10;;;1.58;;
28605;SDS011;46498;49.968;7.754;2023-07-20T23:14:55;2.10;;;1.20;;
28605;SDS011;46498;49.968;7.754;2023-07-20T23:19:56;4.28;;;1.70;;
28605;SDS011;46498;49.968;7.754;2023-07-20T23:24:57;4.05;;;1.98;;
28605;SDS011;46498;49.968;7.754;2023-07-20T23:30:00;4.03;;;2.17;;
28605;SDS011;46498;49.968;7.754;2023-07-20T23:35:01;2.35;;;1.60;;
28605;SDS011;46498;49.968;7.754;2023-07-20T23:40:02;2.05;;;1.50;;
28605;SDS011;46498;49.968;7.754;2023-07-20T23:45:11;2.12;;;1.60;;
28605;SDS011;46498;49.968;7.754;2023-07-20T23:55:17;3.90;;;1.70;;
